Time;durP1;ratioP1;P1;durP2;ratioP2;P2;SDS_P1;SDS_P2;PMS_P1;PMS_P2;Temp;Humidity;BMP_temperature;BMP_pressure;BME280_temperature;BME280_humidity;BME280_pressure;Samples;Min_cycle;Max_cycle;Signal;HPM_P1;HPM_P2
2023/06/06 00:00:21;;;;;;;4.80;4.40;;;20.90;62.10;;;;;;5008949;28;20535;-73
2023/06/06 00:02:48;;;;;;;4.70;4.30;;;20.90;63.20;;;;;;5006142;28;20472;-73
2023/06/06 00:05:14;;;;;;;3.83;3.53;;;20.80;62.70;;;;;;5017093;28;20452;-73
2023/06/06 00:07:42;;;;;;;4.10;3.70;;;20.80;62.70;;;;;;5008091;28;20467;-71
2023/06/06 00:10:10;;;;;;;4.50;4.10;;;20.80;63.10;;;;;;5009379;28;20460;-70
2023/06/06 00:12:37;;;;;;;4.03;3.73;;;20.80;62.80;;;;;;4991738;28;20441;-73
2023/06/06 00:15:05;;;;;;;4.70;4.23;;;20.80;63.60;;;;;;4991740;28;20464;-73
2023/06/06 00:17:31;;;;;;;4.80;4.07;;;20.70;63.40;;;;;;5005941;28;20457;-74
2023/06/06 00:19:57;;;;;;;4.30;3.73;;;20.70;63.70;;;;;;5001684;28;20461;-73
2023/06/06 00:22:23;;;;;;;4.63;3.70;;;20.70;64.30;;;;;;5008856;28;20471;-73
2023/06/06 00:24:53;;;;;;;4.53;3.97;;;20.70;64.20;;;;;;4991800;28;20222;-73
2023/06/06 00:27:20;;;;;;;4.13;3.73;;;20.70;64.20;;;;;;5010274;28;20876;-72
2023/06/06 00:29:46;;;;;;;4.03;3.60;;;20.50;64.40;;;;;;4984103;28;20583;-74
2023/06/06 00:32:12;;;;;;;4.03;3.73;;;20.60;64.90;;;;;;5009102;28;20460;-72
2023/06/06 00:34:38;;;;;;;4.13;3.80;;;20.60;64.70;;;;;;4991680;28;20540;-72
2023/06/06 00:37:04;;;;;;;4.70;4.00;;;20.40;65.20;;;;;;4989514;28;20226;-73
2023/06/06 00:39:29;;;;;;;4.63;4.20;;;20.30;65.90;;;;;;5004579;28;20230;-74
2023/06/06 00:41:56;;;;;;;5.67;4.50;;;20.30;66.10;;;;;;5008896;28;20213;-72
2023/06/06 00:44:21;;;;;;;4.77;4.27;;;20.30;66.30;;;;;;5008530;28;20864;-74
2023/06/06 00:46:48;;;;;;;5.07;4.57;;;20.40;66.60;;;;;;5008161;28;20218;-72
2023/06/06 00:49:16;;;;;;;5.90;4.10;;;20.40;67.10;;;;;;4991440;28;20267;-74
2023/06/06 00:51:43;;;;;;;3.90;3.60;;;20.30;66.90;;;;;;5009525;28;20445;-72
2023/06/06 00:54:15;;;;;;;4.33;3.93;;;20.30;66.90;;;;;;5008885;28;20852;-74
2023/06/06 00:56:44;;;;;;;4.57;4.00;;;20.30;67.50;;;;;;5006213;28;20461;-74
2023/06/06 00:59:12;;;;;;;5.93;3.83;;;20.20;67.50;;;;;;5007643;28;20452;-73
2023/06/06 01:01:39;;;;;;;4.37;4.03;;;20.10;68.00;;;;;;5014049;28;20444;-74
2023/06/06 01:04:10;;;;;;;4.80;4.13;;;20.10;68.50;;;;;;4990992;28;20466;-74
2023/06/06 01:06:39;;;;;;;4.43;3.97;;;20.10;68.70;;;;;;5005236;28;20449;-74
2023/06/06 01:09:07;;;;;;;4.60;4.20;;;20.10;68.80;;;;;;4999234;28;20556;-73
2023/06/06 01:11:57;;;;;;;4.37;3.90;;;20.10;69.00;;;;;;5007070;28;20477;-73
2023/06/06 01:15:00;;;;;;;4.43;4.03;;;20.10;69.40;;;;;;5004168;28;20981;-73
2023/06/06 01:17:27;;;;;;;4.60;3.70;;;20.00;69.60;;;;;;5008056;28;20911;-72
2023/06/06 01:19:56;;;;;;;4.67;4.27;;;19.90;69.50;;;;;;4991444;28;21213;-72
2023/06/06 01:22:23;;;;;;;4.27;3.87;;;19.90;70.00;;;;;;4991611;28;20459;-71
2023/06/06 01:24:53;;;;;;;5.00;4.50;;;20.00;70.00;;;;;;5006977;28;20523;-71
2023/06/06 01:27:21;;;;;;;4.60;4.20;;;19.90;69.70;;;;;;5007393;28;20543;-71
2023/06/06 01:29:48;;;;;;;3.70;3.40;;;20.00;69.80;;;;;;5001862;28;20507;-72
2023/06/06 01:32:32;;;;;;;4.67;4.23;;;20.00;69.70;;;;;;5007977;28;20532;-71
2023/06/06 01:35:35;;;;;;;4.53;4.20;;;19.90;70.20;;;;;;5001092;28;20461;-71
2023/06/06 01:38:11;;;;;;;4.20;3.83;;;19.90;70.50;;;;;;5001242;28;21264;-72
2023/06/06 01:40:38;;;;;;;4.40;4.00;;;19.90;70.60;;;;;;5004790;28;20456;-72
2023/06/06 01:43:07;;;;;;;5.40;4.00;;;19.80;70.90;;;;;;5008159;28;20492;-72
2023/06/06 01:45:34;;;;;;;6.40;4.10;;;19.70;71.20;;;;;;5008136;28;20451;-73
2023/06/06 01:48:00;;;;;;;4.83;3.77;;;19.70;72.70;;;;;;5007650;28;20476;-71
2023/06/06 01:50:26;;;;;;;4.17;3.77;;;19.70;71.40;;;;;;5006990;28;20964;-72
2023/06/06 01:52:55;;;;;;;4.60;4.10;;;19.70;71.50;;;;;;4990864;28;20230;-73
2023/06/06 01:55:22;;;;;;;4.40;4.00;;;19.70;71.70;;;;;;5006920;28;20296;-72
2023/06/06 01:57:48;;;;;;;5.60;4.13;;;19.60;71.70;;;;;;5007071;28;20872;-72
2023/06/06 02:00:16;;;;;;;4.33;3.93;;;19.60;72.20;;;;;;5007366;28;20866;-73
2023/06/06 02:02:41;;;;;;;5.70;4.40;;;19.60;72.50;;;;;;5008596;28;20464;-72
2023/06/06 02:05:07;;;;;;;5.13;3.97;;;19.50;72.50;;;;;;4991317;28;20453;-72
2023/06/06 02:07:34;;;;;;;4.17;3.77;;;19.50;73.10;;;;;;4983139;28;20994;-72
2023/06/06 02:10:02;;;;;;;5.90;4.03;;;19.50;73.40;;;;;;4995371;28;20900;-72
2023/06/06 02:12:27;;;;;;;4.10;3.63;;;19.50;73.40;;;;;;5013538;28;20461;-71
2023/06/06 02:14:54;;;;;;;5.00;4.60;;;19.40;72.90;;;;;;5006641;28;20463;-72
2023/06/06 02:17:20;;;;;;;6.00;4.70;;;19.40;73.50;;;;;;4998746;28;20462;-72
2023/06/06 02:19:46;;;;;;;5.63;4.37;;;19.40;73.60;;;;;;4989858;28;20256;-72
2023/06/06 02:22:12;;;;;;;4.33;3.93;;;19.40;73.50;;;;;;5007630;28;20465;-71
2023/06/06 02:24:40;;;;;;;4.67;4.20;;;19.40;73.90;;;;;;5004455;28;20218;-72
2023/06/06 02:27:09;;;;;;;5.30;4.53;;;19.30;73.60;;;;;;4990745;28;20476;-71
2023/06/06 02:29:36;;;;;;;4.50;4.10;;;19.30;73.70;;;;;;5006041;28;20469;-72
2023/06/06 02:32:03;;;;;;;7.00;4.40;;;19.30;74.10;;;;;;5002820;28;20453;-72
2023/06/06 02:34:29;;;;;;;5.10;4.60;;;19.20;73.90;;;;;;4999760;28;20539;-71
2023/06/06 02:36:56;;;;;;;5.33;4.67;;;19.20;74.40;;;;;;5008437;28;21064;-71
2023/06/06 02:39:22;;;;;;;4.67;4.27;;;19.20;74.30;;;;;;4993584;28;20463;-71
2023/06/06 02:41:50;;;;;;;6.07;4.53;;;19.20;74.30;;;;;;5012160;28;20485;-70
2023/06/06 02:44:17;;;;;;;5.63;4.60;;;19.20;74.10;;;;;;5011189;28;20452;-71
2023/06/06 02:46:44;;;;;;;5.13;4.67;;;19.20;74.20;;;;;;5000364;28;20450;-72
2023/06/06 02:49:11;;;;;;;5.10;4.40;;;19.20;74.20;;;;;;5010661;28;20460;-72
2023/06/06 02:51:41;;;;;;;4.63;4.10;;;19.20;73.90;;;;;;5017547;28;20438;-72
2023/06/06 02:54:06;;;;;;;5.77;4.70;;;19.20;74.40;;;;;;5011176;28;20990;-71
2023/06/06 02:56:32;;;;;;;4.30;3.90;;;19.20;74.30;;;;;;5010807;28;20532;-70
2023/06/06 02:58:58;;;;;;;8.17;4.40;;;19.10;74.20;;;;;;4993877;28;20310;-71
2023/06/06 03:01:25;;;;;;;7.70;4.93;;;19.10;74.30;;;;;;4993884;28;20508;-72
2023/06/06 03:03:51;;;;;;;4.70;4.30;;;18.90;74.30;;;;;;4993251;28;20313;-71
2023/06/06 03:06:18;;;;;;;4.70;4.13;;;18.90;75.00;;;;;;4994309;28;20445;-70
2023/06/06 03:08:44;;;;;;;4.87;4.40;;;18.90;76.10;;;;;;4993323;28;20503;-71
2023/06/06 03:11:10;;;;;;;4.80;4.10;;;18.90;75.30;;;;;;4994413;28;20480;-71
2023/06/06 03:13:36;;;;;;;6.60;4.70;;;18.90;75.50;;;;;;5009171;28;20460;-72
2023/06/06 03:16:02;;;;;;;5.90;5.27;;;18.90;76.00;;;;;;5010824;28;20887;-71
2023/06/06 03:18:28;;;;;;;4.40;4.00;;;18.80;75.80;;;;;;4993967;28;20481;-70
2023/06/06 03:21:00;;;;;;;4.73;4.33;;;18.80;76.30;;;;;;5010418;28;20510;-72
2023/06/06 03:23:30;;;;;;;7.60;5.30;;;18.80;76.20;;;;;;5010238;28;21032;-70
2023/06/06 03:25:56;;;;;;;4.80;4.40;;;18.80;76.10;;;;;;5010077;28;20432;-72
2023/06/06 03:28:22;;;;;;;5.53;5.03;;;18.70;76.80;;;;;;5000958;28;20210;-72
2023/06/06 03:30:50;;;;;;;5.47;4.97;;;18.70;76.50;;;;;;5001039;28;20456;-71
2023/06/06 03:33:16;;;;;;;4.60;4.20;;;18.70;76.50;;;;;;5009950;28;20441;-70
2023/06/06 03:35:43;;;;;;;5.37;4.50;;;18.60;76.90;;;;;;5009474;28;20230;-71
2023/06/06 03:38:09;;;;;;;5.17;4.67;;;18.40;76.70;;;;;;5010733;28;20802;-71
2023/06/06 03:40:35;;;;;;;4.70;4.30;;;18.40;77.60;;;;;;5004726;28;20576;-71
2023/06/06 03:43:01;;;;;;;5.67;4.27;;;18.40;77.30;;;;;;4997725;28;20213;-72
2023/06/06 03:45:28;;;;;;;6.23;4.90;;;18.40;77.70;;;;;;5009900;28;21094;-72
2023/06/06 03:47:54;;;;;;;5.77;5.23;;;18.40;78.00;;;;;;4999235;28;20452;-70
2023/06/06 03:50:21;;;;;;;4.40;4.00;;;18.40;78.20;;;;;;4992566;28;20228;-71
2023/06/06 03:52:47;;;;;;;6.43;4.23;;;18.40;78.30;;;;;;5009350;28;20464;-72
2023/06/06 03:55:13;;;;;;;5.00;4.57;;;18.40;77.90;;;;;;5010541;28;20465;-71
2023/06/06 03:57:39;;;;;;;4.87;4.27;;;18.40;78.00;;;;;;5000597;28;20460;-72
2023/06/06 04:00:10;;;;;;;5.27;4.73;;;18.40;78.20;;;;;;5005181;28;20239;-70
2023/06/06 04:02:38;;;;;;;5.33;4.53;;;18.40;78.10;;;;;;5004680;28;20445;-71
2023/06/06 04:05:06;;;;;;;4.93;4.43;;;18.50;78.10;;;;;;4993699;28;20457;-72
2023/06/06 04:07:32;;;;;;;4.60;4.20;;;18.40;78.30;;;;;;5015729;28;20462;-70
2023/06/06 04:09:59;;;;;;;7.20;4.47;;;18.30;78.10;;;;;;5008143;28;20469;-71
2023/06/06 04:12:25;;;;;;;8.03;4.60;;;18.30;78.90;;;;;;5004985;28;20489;-71
2023/06/06 04:14:51;;;;;;;5.13;4.63;;;18.40;79.00;;;;;;5010527;28;20457;-71
2023/06/06 04:17:21;;;;;;;5.50;4.73;;;18.40;78.90;;;;;;5010069;28;20452;-71
2023/06/06 04:19:47;;;;;;;5.80;5.10;;;18.40;78.80;;;;;;4991729;28;20471;-70
2023/06/06 04:22:18;;;;;;;5.23;4.37;;;18.40;79.60;;;;;;4995916;28;20515;-71
2023/06/06 04:24:43;;;;;;;5.20;4.70;;;18.40;79.30;;;;;;4992687;28;20805;-70
2023/06/06 04:27:10;;;;;;;4.60;4.20;;;18.40;79.70;;;;;;4989652;28;20458;-70
2023/06/06 04:29:36;;;;;;;4.90;4.43;;;18.30;79.10;;;;;;4991189;28;20347;-71
2023/06/06 04:32:03;;;;;;;5.00;4.17;;;18.30;78.90;;;;;;5009193;28;20461;-70
2023/06/06 04:34:31;;;;;;;5.63;4.70;;;18.20;79.90;;;;;;4995315;28;20462;-72
2023/06/06 04:37:05;;;;;;;4.27;3.87;;;18.30;79.60;;;;;;5006044;28;20567;-72
2023/06/06 04:39:32;;;;;;;5.20;4.70;;;18.30;79.90;;;;;;5008848;28;20484;-72
2023/06/06 04:42:00;;;;;;;4.80;4.40;;;18.20;80.30;;;;;;5009923;28;20453;-71
2023/06/06 04:44:26;;;;;;;5.20;4.70;;;18.30;80.30;;;;;;5010000;28;20990;-70
2023/06/06 04:47:00;;;;;;;4.97;4.50;;;18.30;80.50;;;;;;5008716;28;20468;-70
2023/06/06 04:49:26;;;;;;;4.90;4.50;;;18.30;80.40;;;;;;5010067;28;20473;-71
2023/06/06 04:51:53;;;;;;;11.20;5.63;;;18.30;80.40;;;;;;4991716;28;20500;-70
2023/06/06 04:54:19;;;;;;;4.70;4.10;;;18.30;80.00;;;;;;5009786;28;20496;-71
2023/06/06 04:56:51;;;;;;;5.40;4.70;;;18.30;80.80;;;;;;4992866;28;20453;-71
2023/06/06 04:59:21;;;;;;;4.63;4.23;;;18.40;80.50;;;;;;5008105;28;20526;-71
2023/06/06 05:01:47;;;;;;;4.80;4.30;;;18.40;81.50;;;;;;5014537;28;20461;-71
2023/06/06 05:04:13;;;;;;;4.80;4.40;;;18.40;81.20;;;;;;5009919;28;20449;-71
2023/06/06 05:06:40;;;;;;;4.83;4.37;;;18.50;81.30;;;;;;5010079;28;21002;-72
2023/06/06 05:09:07;;;;;;;5.67;5.00;;;18.50;81.30;;;;;;5007646;28;20593;-72
2023/06/06 05:11:36;;;;;;;5.70;5.10;;;18.50;80.60;;;;;;4994110;28;21228;-71
2023/06/06 05:14:02;;;;;;;4.67;4.20;;;18.60;80.80;;;;;;5007326;28;20473;-71
2023/06/06 05:16:28;;;;;;;4.90;4.27;;;18.60;80.20;;;;;;5007516;28;20465;-72
2023/06/06 05:18:54;;;;;;;5.60;5.03;;;18.60;80.30;;;;;;5008659;28;20484;-72
2023/06/06 05:21:20;;;;;;;4.20;3.80;;;18.60;80.50;;;;;;5008218;28;20970;-72
2023/06/06 05:23:47;;;;;;;5.40;4.90;;;18.60;80.60;;;;;;5012045;28;20603;-70
2023/06/06 05:26:12;;;;;;;6.23;4.73;;;18.60;80.50;;;;;;5011047;28;20453;-71
2023/06/06 05:28:38;;;;;;;5.07;4.67;;;18.60;80.40;;;;;;4987955;28;21077;-72
2023/06/06 05:31:07;;;;;;;4.60;4.17;;;18.70;80.30;;;;;;5000420;28;20218;-71
2023/06/06 05:33:34;;;;;;;5.20;4.30;;;18.70;79.60;;;;;;5009016;28;20304;-70
2023/06/06 05:36:00;;;;;;;5.07;4.17;;;18.80;80.20;;;;;;5007358;28;20480;-70
2023/06/06 05:38:26;;;;;;;4.50;4.07;;;18.80;79.90;;;;;;5006893;28;20461;-72
2023/06/06 05:40:52;;;;;;;6.17;5.40;;;18.80;79.60;;;;;;5010310;28;20456;-72
2023/06/06 05:43:18;;;;;;;4.63;4.20;;;18.90;79.80;;;;;;5010405;28;20468;-71
2023/06/06 05:45:44;;;;;;;7.60;4.97;;;18.90;80.50;;;;;;5011703;28;20276;-72
2023/06/06 05:48:09;;;;;;;9.20;5.40;;;18.90;80.70;;;;;;4997466;28;20217;-71
2023/06/06 05:50:35;;;;;;;5.00;4.57;;;18.90;81.00;;;;;;4990743;28;20221;-72
2023/06/06 05:53:02;;;;;;;4.63;4.17;;;18.90;81.10;;;;;;5008067;28;20218;-71
2023/06/06 05:55:30;;;;;;;6.63;4.97;;;18.90;81.60;;;;;;5008689;28;20476;-70
2023/06/06 05:57:56;;;;;;;4.27;3.97;;;19.00;81.10;;;;;;5007655;28;20449;-71
2023/06/06 06:00:23;;;;;;;6.00;4.27;;;19.00;81.10;;;;;;4995799;28;20544;-71
2023/06/06 06:02:52;;;;;;;6.27;4.80;;;19.00;80.60;;;;;;4989787;28;20986;-71
2023/06/06 06:05:19;;;;;;;4.80;4.20;;;19.10;81.30;;;;;;5007153;28;20472;-71
2023/06/06 06:07:44;;;;;;;5.27;4.50;;;19.10;81.00;;;;;;5005455;28;20469;-72
2023/06/06 06:10:10;;;;;;;5.00;4.20;;;19.20;80.90;;;;;;4975500;28;20464;-70
2023/06/06 06:12:36;;;;;;;4.93;4.23;;;19.20;82.20;;;;;;5010314;28;20221;-70
2023/06/06 06:15:02;;;;;;;6.60;4.33;;;19.30;81.30;;;;;;5010691;28;20355;-71
2023/06/06 06:17:28;;;;;;;6.00;4.53;;;19.20;82.60;;;;;;5006935;28;20226;-70
2023/06/06 06:19:53;;;;;;;16.13;4.93;;;19.20;82.90;;;;;;4992109;28;20229;-71
2023/06/06 06:22:19;;;;;;;5.00;4.33;;;19.40;82.70;;;;;;5007408;28;20229;-70
2023/06/06 06:24:45;;;;;;;6.10;4.40;;;19.50;82.70;;;;;;5006339;28;20295;-71
2023/06/06 06:27:10;;;;;;;5.07;4.57;;;19.50;83.90;;;;;;5007872;28;20228;-71
2023/06/06 06:29:36;;;;;;;4.80;4.40;;;19.60;85.70;;;;;;5008969;28;20233;-71
2023/06/06 06:32:02;;;;;;;6.73;4.40;;;19.70;83.10;;;;;;5010637;28;20217;-72
2023/06/06 06:34:27;;;;;;;6.47;4.40;;;19.70;84.40;;;;;;5006499;28;20673;-70
2023/06/06 06:36:54;;;;;;;5.17;4.47;;;19.90;85.80;;;;;;4990595;28;20230;-70
2023/06/06 06:39:20;;;;;;;5.20;4.17;;;20.00;85.40;;;;;;5010223;28;20226;-71
2023/06/06 06:41:46;;;;;;;6.17;4.50;;;20.10;85.00;;;;;;4994050;28;20480;-72
2023/06/06 06:44:12;;;;;;;4.93;4.37;;;20.20;86.10;;;;;;4999286;28;20225;-70
2023/06/06 06:46:37;;;;;;;5.70;5.20;;;20.30;85.70;;;;;;5006292;28;20221;-71
2023/06/06 06:49:06;;;;;;;4.57;4.17;;;20.30;84.60;;;;;;5004936;28;20218;-70
2023/06/06 06:51:32;;;;;;;5.33;4.83;;;20.20;84.30;;;;;;5009317;28;20229;-72
2023/06/06 06:53:58;;;;;;;5.70;4.60;;;20.30;84.80;;;;;;5011307;28;20530;-70
2023/06/06 06:56:24;;;;;;;5.07;4.60;;;20.40;86.00;;;;;;5006019;28;20217;-71
2023/06/06 06:58:50;;;;;;;5.13;4.50;;;20.50;86.10;;;;;;5008515;28;20218;-71
2023/06/06 07:01:19;;;;;;;6.80;4.70;;;20.70;85.90;;;;;;5014882;28;20680;-71
2023/06/06 07:03:48;;;;;;;6.60;4.87;;;20.70;84.90;;;;;;5009382;28;20455;-72
2023/06/06 07:06:14;;;;;;;3.87;3.50;;;20.70;85.60;;;;;;4990141;28;20461;-71
2023/06/06 07:08:44;;;;;;;5.43;4.70;;;20.70;85.10;;;;;;5007936;28;20452;-73
2023/06/06 07:11:10;;;;;;;5.00;4.60;;;20.80;85.50;;;;;;5005571;28;20218;-70
2023/06/06 07:13:36;;;;;;;4.60;4.20;;;20.90;84.90;;;;;;5009664;28;20811;-71
2023/06/06 07:16:02;;;;;;;5.13;4.67;;;21.00;85.50;;;;;;5010736;28;20463;-71
2023/06/06 07:18:28;;;;;;;6.93;4.20;;;21.10;86.20;;;;;;5000248;28;20229;-71
2023/06/06 07:20:54;;;;;;;4.63;4.13;;;21.10;85.50;;;;;;4990227;28;20450;-72
2023/06/06 07:23:19;;;;;;;5.03;4.50;;;21.10;85.30;;;;;;4990649;28;20275;-72
2023/06/06 07:25:45;;;;;;;5.30;4.80;;;21.10;85.50;;;;;;5015779;28;20273;-72
2023/06/06 07:28:13;;;;;;;5.50;4.90;;;21.10;84.80;;;;;;5016314;28;20226;-72
2023/06/06 07:30:39;;;;;;;4.70;4.27;;;21.00;86.90;;;;;;5012599;28;20748;-71
2023/06/06 07:33:04;;;;;;;5.80;5.20;;;21.00;87.20;;;;;;5008784;28;20449;-70
2023/06/06 07:35:32;;;;;;;5.63;5.00;;;21.00;87.10;;;;;;5009070;28;20699;-71
2023/06/06 07:37:59;;;;;;;4.97;4.47;;;21.00;87.20;;;;;;5013172;28;20244;-71
2023/06/06 07:40:25;;;;;;;6.70;4.33;;;21.10;87.30;;;;;;5005729;28;20472;-71
2023/06/06 07:42:51;;;;;;;5.53;4.93;;;21.00;87.10;;;;;;5015509;28;20518;-70
2023/06/06 07:45:17;;;;;;;4.60;4.20;;;21.10;88.30;;;;;;5012076;28;20305;-70
2023/06/06 07:47:43;;;;;;;5.03;4.63;;;21.20;87.50;;;;;;5012081;28;20221;-72
2023/06/06 07:50:09;;;;;;;5.33;4.60;;;21.30;88.10;;;;;;5010378;28;20464;-72
2023/06/06 07:52:35;;;;;;;4.60;4.20;;;21.40;87.60;;;;;;4997969;28;20782;-72
2023/06/06 07:55:01;;;;;;;5.07;4.57;;;21.60;87.30;;;;;;5011910;28;20566;-70
2023/06/06 07:57:27;;;;;;;5.63;5.03;;;21.60;86.70;;;;;;5005941;28;20218;-71
2023/06/06 07:59:54;;;;;;;5.30;4.80;;;21.70;86.70;;;;;;5005057;28;20898;-70
2023/06/06 08:02:20;;;;;;;4.50;4.07;;;22.00;86.50;;;;;;5011509;28;20315;-71
2023/06/06 08:04:45;;;;;;;5.80;4.60;;;22.00;86.60;;;;;;4994910;28;20523;-71
2023/06/06 08:07:13;;;;;;;5.00;4.50;;;22.20;86.10;;;;;;5008288;28;20224;-71
2023/06/06 08:09:39;;;;;;;5.60;5.10;;;22.20;86.20;;;;;;5014703;28;20233;-71
2023/06/06 08:12:06;;;;;;;4.87;4.47;;;22.30;85.70;;;;;;4996341;28;20483;-71
2023/06/06 08:14:34;;;;;;;4.13;3.63;;;22.30;84.60;;;;;;5008763;28;20229;-70
2023/06/06 08:17:00;;;;;;;7.60;4.10;;;22.40;84.40;;;;;;4997900;28;20453;-70
2023/06/06 08:19:26;;;;;;;4.40;4.00;;;22.50;84.30;;;;;;4997647;28;20471;-71
2023/06/06 08:21:52;;;;;;;5.00;4.43;;;22.70;84.60;;;;;;5009295;28;20244;-71
2023/06/06 08:24:17;;;;;;;4.50;4.10;;;22.70;83.60;;;;;;5008928;28;21101;-72
2023/06/06 08:26:43;;;;;;;4.50;4.10;;;22.80;84.60;;;;;;5010481;28;20235;-71
2023/06/06 08:29:09;;;;;;;5.13;4.70;;;22.90;85.10;;;;;;5009830;28;20738;-72
2023/06/06 08:31:34;;;;;;;6.10;4.80;;;23.10;85.20;;;;;;5007065;28;20709;-72
2023/06/06 08:34:00;;;;;;;4.53;3.67;;;23.20;85.00;;;;;;5010740;28;20709;-71
2023/06/06 08:36:26;;;;;;;5.07;4.57;;;23.40;84.80;;;;;;5009973;28;20217;-71
2023/06/06 08:38:52;;;;;;;4.70;4.30;;;23.60;84.80;;;;;;5010771;28;20212;-72
2023/06/06 08:41:19;;;;;;;4.50;3.80;;;23.60;84.80;;;;;;5011431;28;20225;-72
2023/06/06 08:43:46;;;;;;;5.90;4.63;;;23.80;84.70;;;;;;4995324;28;21045;-72
2023/06/06 08:46:13;;;;;;;4.87;3.70;;;23.90;84.10;;;;;;5006911;28;20491;-71
2023/06/06 08:48:42;;;;;;;4.13;3.83;;;24.00;83.20;;;;;;5010053;28;20444;-72
2023/06/06 08:51:09;;;;;;;5.67;4.50;;;24.00;83.00;;;;;;5011806;28;20471;-71
2023/06/06 08:53:35;;;;;;;4.70;4.13;;;24.40;82.70;;;;;;5008632;28;21025;-72
2023/06/06 08:56:01;;;;;;;4.03;3.70;;;24.60;81.90;;;;;;5004158;28;20463;-72
2023/06/06 08:58:29;;;;;;;4.47;4.07;;;24.70;80.50;;;;;;5010922;28;20502;-72
2023/06/06 09:00:58;;;;;;;4.90;4.50;;;24.90;79.70;;;;;;5011395;28;20460;-71
2023/06/06 09:03:27;;;;;;;4.60;4.20;;;24.80;80.10;;;;;;5008486;28;20467;-71
2023/06/06 09:05:54;;;;;;;4.70;4.30;;;24.70;80.20;;;;;;5008773;28;20464;-72
2023/06/06 09:08:20;;;;;;;5.80;4.97;;;24.90;79.80;;;;;;5010760;28;20511;-72
2023/06/06 09:10:46;;;;;;;5.33;4.83;;;24.90;79.40;;;;;;5011538;28;20514;-72
2023/06/06 09:13:12;;;;;;;4.53;4.13;;;24.90;79.90;;;;;;5007690;28;20970;-71
2023/06/06 09:15:37;;;;;;;5.10;3.97;;;24.70;79.30;;;;;;5010268;28;20229;-71
2023/06/06 09:18:03;;;;;;;4.03;3.63;;;24.90;79.90;;;;;;5008931;28;20221;-71
2023/06/06 09:20:29;;;;;;;4.67;4.27;;;25.20;79.20;;;;;;4998959;28;20226;-72
2023/06/06 09:22:57;;;;;;;4.97;3.70;;;25.40;78.30;;;;;;5010718;28;20217;-72
2023/06/06 09:25:25;;;;;;;4.47;4.07;;;25.50;79.30;;;;;;5010971;28;21040;-72
2023/06/06 09:28:03;;;;;;;3.93;3.63;;;25.50;78.30;;;;;;5012928;28;20463;-72
2023/06/06 09:30:31;;;;;;;6.80;4.57;;;25.10;78.10;;;;;;4987857;28;20461;-71
2023/06/06 09:33:02;;;;;;;5.10;4.60;;;24.90;78.30;;;;;;4991083;28;20460;-72
2023/06/06 09:35:42;;;;;;;5.10;4.53;;;25.20;78.30;;;;;;5014748;28;20483;-72
2023/06/06 09:38:08;;;;;;;5.93;4.40;;;25.60;78.10;;;;;;5009035;28;20459;-72
2023/06/06 09:40:54;;;;;;;5.17;4.33;;;26.00;77.50;;;;;;4997342;28;20547;-72
2023/06/06 09:43:24;;;;;;;6.13;4.30;;;26.20;77.10;;;;;;5010758;28;20456;-73
2023/06/06 09:45:52;;;;;;;5.10;4.63;;;26.30;76.80;;;;;;5006748;28;20449;-71
2023/06/06 09:48:26;;;;;;;4.70;4.33;;;26.40;76.00;;;;;;5010235;28;20464;-72
2023/06/06 09:50:52;;;;;;;7.07;5.13;;;26.50;75.70;;;;;;5009678;28;20482;-72
2023/06/06 09:53:18;;;;;;;5.23;4.70;;;26.50;76.30;;;;;;5009413;28;20472;-72
2023/06/06 09:55:44;;;;;;;4.97;4.47;;;26.60;75.50;;;;;;5003024;28;20234;-72
2023/06/06 09:58:17;;;;;;;4.83;4.33;;;26.60;75.10;;;;;;5007466;28;20225;-72
2023/06/06 10:00:47;;;;;;;5.17;4.77;;;26.80;74.40;;;;;;5004998;28;20445;-72
2023/06/06 10:03:18;;;;;;;6.80;4.50;;;26.70;74.40;;;;;;4995415;28;20213;-72
2023/06/06 10:05:48;;;;;;;5.70;4.70;;;27.00;74.50;;;;;;5013810;28;20747;-72
2023/06/06 10:08:15;;;;;;;5.20;4.60;;;27.10;73.50;;;;;;5007034;28;20304;-72
2023/06/06 10:10:46;;;;;;;4.93;4.28;;;27.20;73.70;;;;;;5008774;28;20460;-72
2023/06/06 10:13:19;;;;;;;4.93;4.53;;;27.30;73.40;;;;;;5012212;28;20228;-72
2023/06/06 10:15:45;;;;;;;5.97;4.80;;;27.30;72.80;;;;;;4991457;28;20225;-72
2023/06/06 10:18:12;;;;;;;5.60;5.03;;;27.40;72.10;;;;;;4992924;28;20221;-73
2023/06/06 10:20:39;;;;;;;5.10;4.60;;;27.60;72.00;;;;;;5006703;28;20585;-72
2023/06/06 10:23:05;;;;;;;4.75;4.32;;;27.80;70.40;;;;;;5008694;28;20285;-72
2023/06/06 10:25:31;;;;;;;4.93;4.53;;;27.70;70.90;;;;;;5007066;28;20304;-72
2023/06/06 10:28:08;;;;;;;5.82;3.90;;;27.80;71.10;;;;;;5005929;28;20239;-72
2023/06/06 10:30:42;;;;;;;5.90;5.00;;;28.10;69.10;;;;;;5012044;28;20303;-72
2023/06/06 10:33:08;;;;;;;6.47;4.78;;;28.30;69.40;;;;;;5008011;28;20267;-73
2023/06/06 10:35:36;;;;;;;5.28;4.78;;;28.40;68.50;;;;;;5014133;28;20229;-72
2023/06/06 10:38:04;;;;;;;5.95;4.88;;;28.40;69.30;;;;;;5010388;28;20259;-73
2023/06/06 10:40:50;;;;;;;4.72;4.43;;;28.50;69.10;;;;;;5012950;28;20227;-72
2023/06/06 10:43:42;;;;;;;5.13;4.72;;;28.50;69.40;;;;;;5005087;28;20213;-73
2023/06/06 10:46:08;;;;;;;4.72;4.32;;;28.40;69.30;;;;;;4979020;28;20306;-71
2023/06/06 10:48:45;;;;;;;4.88;4.43;;;28.70;67.10;;;;;;5007420;28;20225;-73
2023/06/06 10:51:23;;;;;;;5.53;4.93;;;28.90;66.20;;;;;;5004971;28;20299;-72
2023/06/06 10:54:17;;;;;;;5.22;4.72;;;28.80;67.00;;;;;;4990085;28;20220;-73
2023/06/06 10:57:01;;;;;;;5.28;4.78;;;28.70;65.40;;;;;;5010396;28;20761;-73
2023/06/06 10:59:28;;;;;;;4.93;4.53;;;28.70;64.80;;;;;;5008612;28;20231;-72
2023/06/06 11:01:55;;;;;;;6.30;4.60;;;28.70;63.20;;;;;;5011147;28;20209;-75
2023/06/06 11:04:25;;;;;;;5.40;4.88;;;28.80;63.40;;;;;;4998568;28;20249;-73
2023/06/06 11:06:53;;;;;;;5.25;4.80;;;28.80;62.20;;;;;;5018290;28;20299;-75
2023/06/06 11:09:22;;;;;;;4.32;4.03;;;28.90;61.40;;;;;;5005448;28;20221;-71
2023/06/06 11:12:14;;;;;;;5.97;5.47;;;28.60;60.90;;;;;;4996896;28;20227;-72
2023/06/06 11:14:58;;;;;;;5.40;4.85;;;28.50;61.50;;;;;;5010921;28;20237;-72
2023/06/06 11:17:27;;;;;;;5.43;5.03;;;28.20;60.00;;;;;;5006344;28;20255;-73
2023/06/06 11:19:56;;;;;;;7.82;4.60;;;28.20;59.60;;;;;;5016610;28;20229;-73
2023/06/06 11:22:25;;;;;;;5.25;4.75;;;27.80;59.50;;;;;;5017989;28;20312;-72
2023/06/06 11:24:55;;;;;;;4.95;4.55;;;27.80;59.60;;;;;;5011770;28;20601;-74
2023/06/06 11:27:21;;;;;;;5.18;4.78;;;27.40;59.60;;;;;;5021651;28;20229;-73
2023/06/06 11:29:47;;;;;;;5.30;4.88;;;27.50;60.00;;;;;;5009835;28;20225;-72
2023/06/06 11:32:14;;;;;;;4.85;4.45;;;27.50;59.90;;;;;;5009483;28;20213;-73
2023/06/06 11:34:40;;;;;;;5.32;4.82;;;27.60;59.80;;;;;;5015190;28;20731;-73
2023/06/06 11:37:07;;;;;;;5.13;4.72;;;27.50;59.70;;;;;;5000409;28;20219;-73
2023/06/06 11:39:33;;;;;;;5.80;5.15;;;27.60;60.40;;;;;;5009648;28;20695;-72
2023/06/06 11:41:59;;;;;;;4.75;4.35;;;27.50;59.80;;;;;;5016334;28;20590;-73
2023/06/06 11:44:35;;;;;;;10.68;4.85;;;27.40;60.70;;;;;;5015100;28;20221;-73
2023/06/06 11:47:03;;;;;;;5.40;5.00;;;27.10;60.70;;;;;;5012042;28;20296;-73
2023/06/06 11:49:40;;;;;;;7.00;5.20;;;27.00;60.90;;;;;;5008729;28;20222;-74
2023/06/06 11:52:06;;;;;;;4.85;4.45;;;26.90;61.10;;;;;;5013219;28;20399;-73
2023/06/06 11:54:33;;;;;;;5.03;4.63;;;26.90;61.40;;;;;;5010155;28;20221;-72
2023/06/06 11:57:02;;;;;;;7.03;4.57;;;26.60;62.80;;;;;;4993662;28;20301;-72
2023/06/06 11:59:28;;;;;;;5.40;4.90;;;26.50;63.30;;;;;;5012631;28;20441;-74
2023/06/06 12:01:54;;;;;;;4.80;4.40;;;26.50;62.80;;;;;;5014713;28;20679;-72
2023/06/06 12:04:21;;;;;;;5.00;4.60;;;26.80;62.30;;;;;;5013574;28;20221;-72
2023/06/06 12:06:54;;;;;;;4.70;4.30;;;26.90;61.80;;;;;;5014400;28;20456;-72
2023/06/06 12:09:23;;;;;;;5.15;4.65;;;27.00;62.20;;;;;;5007135;28;20867;-73
2023/06/06 12:11:51;;;;;;;5.10;4.70;;;26.90;62.30;;;;;;5016974;28;20244;-72
2023/06/06 12:14:17;;;;;;;5.20;4.80;;;26.90;62.40;;;;;;5012794;28;20221;-72
2023/06/06 12:16:42;;;;;;;5.23;4.77;;;27.00;61.60;;;;;;5008967;28;20267;-72
2023/06/06 12:19:15;;;;;;;8.80;4.87;;;26.80;59.90;;;;;;5008226;28;20262;-74
2023/06/06 12:21:51;;;;;;;4.20;3.88;;;27.00;59.80;;;;;;5012861;28;20734;-73
2023/06/06 12:24:22;;;;;;;4.87;4.27;;;26.90;58.70;;;;;;4992134;28;20224;-72
2023/06/06 12:27:04;;;;;;;4.30;3.90;;;26.80;58.10;;;;;;4999402;28;20226;-72
2023/06/06 12:29:33;;;;;;;6.40;4.50;;;26.90;57.40;;;;;;5009546;28;20233;-72
2023/06/06 12:32:26;;;;;;;3.85;3.63;;;27.20;56.10;;;;;;5015924;28;20460;-72
2023/06/06 12:35:01;;;;;;;4.77;4.37;;;27.40;56.80;;;;;;5010682;28;20239;-72
2023/06/06 12:37:43;;;;;;;6.30;3.80;;;26.90;56.50;;;;;;5007548;28;20290;-72
2023/06/06 12:40:13;;;;;;;4.30;4.00;;;26.90;56.10;;;;;;5006385;28;20213;-72
2023/06/06 12:42:39;;;;;;;3.83;3.60;;;27.10;56.10;;;;;;5008260;28;20229;-72
2023/06/06 12:45:06;;;;;;;4.85;4.45;;;27.30;56.10;;;;;;5010742;28;20914;-71
2023/06/06 12:47:32;;;;;;;5.03;4.60;;;27.40;55.80;;;;;;5013217;28;20226;-72
2023/06/06 12:49:58;;;;;;;5.65;4.97;;;27.50;55.80;;;;;;5015698;28;20303;-71